createdAt,value
2018-03-31T00:00:50.330Z,6.10
2018-03-31T00:01:50.352Z,5.80
2018-03-31T00:02:50.428Z,6.60
2018-03-31T00:03:50.392Z,6.10
2018-03-31T00:04:50.394Z,6.60
2018-03-31T00:05:50.407Z,6.00
2018-03-31T00:06:50.424Z,6.90
2018-03-31T00:07:50.451Z,6.10
2018-03-31T00:08:50.480Z,6.80
2018-03-31T00:09:50.481Z,6.30
2018-03-31T00:10:50.490Z,6.30
2018-03-31T00:11:50.511Z,6.20
2018-03-31T00:12:50.523Z,6.70
2018-03-31T00:13:50.541Z,6.50
2018-03-31T00:14:50.568Z,6.20
2018-03-31T00:15:50.577Z,6.20
2018-03-31T00:16:50.648Z,6.90
2018-03-31T00:17:50.607Z,6.40
2018-03-31T00:18:50.622Z,6.20
2018-03-31T00:19:50.641Z,6.00
2018-03-31T00:20:50.676Z,6.10
2018-03-31T00:21:50.679Z,6.10
2018-03-31T00:22:50.701Z,6.60
2018-03-31T00:23:50.723Z,6.30
2018-03-31T00:24:50.725Z,6.40
2018-03-31T00:25:50.737Z,6.60
2018-03-31T00:26:50.754Z,6.20
2018-03-31T00:27:50.839Z,6.20
2018-03-31T00:28:50.840Z,7.50
2018-03-31T00:29:50.805Z,7.10
2018-03-31T00:30:50.819Z,6.80
2018-03-31T00:31:50.842Z,6.90
2018-03-31T00:32:50.855Z,6.70
2018-03-31T00:33:50.884Z,7.20
2018-03-31T00:34:50.938Z,6.40
2018-03-31T00:35:50.912Z,7.00
2018-03-31T00:36:50.920Z,6.30
2018-03-31T00:37:50.935Z,7.20
2018-03-31T00:38:51.005Z,6.80
2018-03-31T00:39:51.009Z,6.40
2018-03-31T00:40:50.996Z,6.90
2018-03-31T00:41:51.019Z,6.80
2018-03-31T00:42:51.020Z,6.90
2018-03-31T00:43:51.035Z,7.00
2018-03-31T00:44:51.053Z,6.50
2018-03-31T00:45:51.078Z,7.00
2018-03-31T00:46:51.145Z,7.10
2018-03-31T00:47:51.112Z,6.80
2018-03-31T00:48:51.118Z,6.70
2018-03-31T00:49:51.137Z,6.40
2018-03-31T00:50:51.154Z,6.50
2018-03-31T00:51:51.171Z,6.60
2018-03-31T00:52:51.238Z,7.10
2018-03-31T00:53:51.202Z,6.40
2018-03-31T00:54:51.219Z,6.80
2018-03-31T00:55:51.235Z,6.60
2018-03-31T00:56:51.255Z,6.50
2018-03-31T00:57:51.278Z,7.10
2018-03-31T00:58:51.344Z,6.80
2018-03-31T00:59:51.304Z,6.90
2018-03-31T01:00:51.318Z,6.60
2018-03-31T01:01:51.336Z,6.60
2018-03-31T01:02:51.361Z,6.70
2018-03-31T01:03:51.368Z,6.70
2018-03-31T01:04:51.472Z,6.70
2018-03-31T01:05:51.403Z,6.80
2018-03-31T01:06:51.421Z,6.60
2018-03-31T01:07:51.437Z,7.00
2018-03-31T01:08:51.451Z,6.00
2018-03-31T01:09:51.467Z,6.40
2018-03-31T01:10:51.673Z,7.20
2018-03-31T01:11:51.503Z,6.50
2018-03-31T01:12:51.517Z,6.90
2018-03-31T01:13:51.535Z,6.60
2018-03-31T01:14:51.549Z,6.30
2018-03-31T01:15:51.577Z,6.60
2018-03-31T01:16:51.645Z,6.70
2018-03-31T01:17:51.598Z,6.10
2018-03-31T01:18:51.634Z,6.50
2018-03-31T01:19:51.633Z,6.50
2018-03-31T01:20:51.650Z,6.50
2018-03-31T01:21:51.664Z,7.00
2018-03-31T01:22:51.771Z,5.80
2018-03-31T01:23:51.697Z,6.70
2018-03-31T01:24:51.717Z,6.70
2018-03-31T01:25:51.732Z,6.60
2018-03-31T01:26:51.755Z,6.40
2018-03-31T01:27:51.767Z,6.60
2018-03-31T01:28:51.811Z,6.40
2018-03-31T01:29:51.799Z,6.20
2018-03-31T01:30:51.816Z,5.90
2018-03-31T01:31:51.831Z,6.00
2018-03-31T01:32:51.854Z,6.20
2018-03-31T01:33:51.862Z,6.00
2018-03-31T01:34:51.933Z,5.80
2018-03-31T01:35:51.899Z,6.20
2018-03-31T01:36:51.914Z,6.30
2018-03-31T01:37:51.935Z,6.10
2018-03-31T01:38:51.956Z,5.60
2018-03-31T01:39:51.975Z,5.70
2018-03-31T01:40:52.037Z,5.50
2018-03-31T01:41:51.994Z,5.40
2018-03-31T01:42:52.012Z,5.70
2018-03-31T01:43:52.031Z,5.80
2018-03-31T01:44:52.046Z,5.40
2018-03-31T01:45:52.065Z,6.30
2018-03-31T01:46:52.130Z,5.50
2018-03-31T01:47:52.096Z,5.50
2018-03-31T01:48:52.118Z,6.00
2018-03-31T01:49:52.133Z,5.70
2018-03-31T01:50:52.148Z,5.80
2018-03-31T01:51:52.162Z,5.60
2018-03-31T01:52:52.188Z,5.50
2018-03-31T01:53:52.194Z,6.30
2018-03-31T01:54:52.212Z,5.40
2018-03-31T01:55:52.234Z,5.40
2018-03-31T01:56:52.247Z,5.10
2018-03-31T01:57:52.276Z,5.80
2018-03-31T01:58:52.331Z,5.60
2018-03-31T01:59:52.295Z,5.90
2018-03-31T02:00:52.310Z,6.30
2018-03-31T02:01:52.328Z,6.10
2018-03-31T02:02:52.354Z,5.60
2018-03-31T02:03:52.361Z,6.60
2018-03-31T02:04:52.431Z,6.10
2018-03-31T02:05:52.394Z,6.00
2018-03-31T02:06:52.416Z,5.80
2018-03-31T02:07:52.439Z,6.10
2018-03-31T02:08:52.447Z,6.20
2018-03-31T02:09:52.472Z,6.40
2018-03-31T02:10:52.481Z,5.90
2018-03-31T02:11:52.579Z,5.70
2018-03-31T02:12:52.519Z,5.60
2018-03-31T02:13:52.536Z,5.90
2018-03-31T02:14:52.546Z,5.70
2018-03-31T02:15:52.568Z,6.50
2018-03-31T02:16:52.631Z,6.10
2018-03-31T02:17:52.598Z,6.30
2018-03-31T02:18:52.620Z,6.00
2018-03-31T02:19:52.636Z,5.80
2018-03-31T02:20:52.643Z,6.40
2018-03-31T02:21:52.663Z,6.00
2018-03-31T02:22:52.743Z,6.60
2018-03-31T02:23:52.695Z,6.20
2018-03-31T02:24:52.721Z,5.60
2018-03-31T02:25:52.784Z,6.80
2018-03-31T02:26:52.747Z,6.70
2018-03-31T02:27:52.760Z,6.30
2018-03-31T02:28:52.777Z,6.10
2018-03-31T02:29:52.794Z,6.90
2018-03-31T02:30:52.811Z,5.90
2018-03-31T02:31:52.826Z,6.10
2018-03-31T02:32:52.886Z,6.00
2018-03-31T02:33:52.869Z,6.60
2018-03-31T02:34:52.881Z,6.10
2018-03-31T02:35:52.949Z,6.10
2018-03-31T02:36:52.911Z,5.90
2018-03-31T02:37:52.928Z,6.10
2018-03-31T02:38:52.953Z,5.70
2018-03-31T02:39:52.970Z,5.90
2018-03-31T02:40:52.986Z,5.80
2018-03-31T02:41:52.992Z,6.60
2018-03-31T02:42:53.015Z,6.10
2018-03-31T02:43:53.038Z,6.30
2018-03-31T02:44:53.044Z,5.80
2018-03-31T02:45:53.074Z,6.00
2018-03-31T02:46:53.076Z,5.80
2018-03-31T02:47:53.096Z,6.20
2018-03-31T02:48:53.113Z,5.90
2018-03-31T02:49:53.138Z,6.10
2018-03-31T02:50:53.144Z,6.00
2018-03-31T02:51:53.213Z,6.20
2018-03-31T02:52:53.180Z,6.00
2018-03-31T02:53:53.248Z,6.20
2018-03-31T02:54:53.222Z,5.80
2018-03-31T02:55:53.247Z,6.20
2018-03-31T02:56:53.258Z,5.80
2018-03-31T02:57:53.328Z,6.00
2018-03-31T02:58:53.284Z,6.10
2018-03-31T02:59:53.322Z,6.40
2018-03-31T03:00:53.313Z,6.00
2018-03-31T03:01:53.326Z,5.80
2018-03-31T03:02:53.345Z,6.30
2018-03-31T03:03:53.414Z,5.70
2018-03-31T03:04:53.390Z,6.00
2018-03-31T03:05:53.433Z,5.80
2018-03-31T03:06:53.420Z,5.50
2018-03-31T03:07:53.428Z,5.60
2018-03-31T03:08:53.446Z,5.80
2018-03-31T03:09:53.510Z,5.80
2018-03-31T03:10:53.476Z,5.70
2018-03-31T03:11:53.492Z,5.90
2018-03-31T03:12:53.509Z,6.00
2018-03-31T03:13:53.539Z,6.00
2018-03-31T03:14:53.544Z,5.60
2018-03-31T03:15:53.561Z,5.10
2018-03-31T03:16:53.588Z,5.00
2018-03-31T03:17:53.601Z,5.40
2018-03-31T03:18:53.615Z,5.50
2018-03-31T03:19:53.634Z,5.40
2018-03-31T03:20:53.646Z,5.60
2018-03-31T03:21:53.720Z,5.50
2018-03-31T03:22:53.679Z,5.00
2018-03-31T03:23:53.704Z,5.50
2018-03-31T03:24:53.717Z,5.00
2018-03-31T03:25:53.724Z,5.50
2018-03-31T03:26:53.744Z,5.60
2018-03-31T03:27:53.760Z,4.90
2018-03-31T03:28:53.791Z,4.90
2018-03-31T03:29:53.789Z,5.70
2018-03-31T03:30:53.896Z,5.10
2018-03-31T03:31:53.824Z,5.10
2018-03-31T03:32:53.843Z,4.40
2018-03-31T03:33:53.906Z,4.90
2018-03-31T03:34:53.873Z,4.80
2018-03-31T03:35:53.906Z,4.50
2018-03-31T03:36:53.923Z,4.90
2018-03-31T03:37:53.923Z,4.70
2018-03-31T03:38:53.941Z,4.60
2018-03-31T03:39:53.968Z,4.80
2018-03-31T03:40:53.976Z,5.20
2018-03-31T03:41:53.999Z,4.90
2018-03-31T03:42:54.076Z,5.10
2018-03-31T03:43:54.024Z,5.00
2018-03-31T03:44:54.041Z,5.00
2018-03-31T03:45:54.107Z,4.60
2018-03-31T03:46:54.074Z,5.20
2018-03-31T03:47:54.101Z,4.90
2018-03-31T03:48:54.109Z,5.40
2018-03-31T03:49:54.125Z,4.90
2018-03-31T03:50:54.141Z,5.00
2018-03-31T03:51:54.208Z,5.00
2018-03-31T03:52:54.183Z,4.80
2018-03-31T03:53:54.191Z,4.70
2018-03-31T03:54:54.242Z,4.70
2018-03-31T03:55:54.233Z,5.00
2018-03-31T03:56:54.241Z,4.70
2018-03-31T03:57:54.306Z,5.40
2018-03-31T03:58:54.274Z,4.80
2018-03-31T03:59:54.291Z,4.60
2018-03-31T04:00:54.305Z,4.90
2018-03-31T04:01:54.320Z,4.90
2018-03-31T04:02:54.335Z,4.40
2018-03-31T04:03:54.356Z,4.90
2018-03-31T04:04:54.374Z,4.80
2018-03-31T04:05:54.396Z,5.10
2018-03-31T04:06:54.405Z,4.70
2018-03-31T04:07:54.430Z,5.00
2018-03-31T04:08:54.448Z,5.40
2018-03-31T04:09:54.514Z,4.50
2018-03-31T04:10:54.472Z,4.50
2018-03-31T04:11:54.488Z,4.60
2018-03-31T04:12:54.514Z,4.30
2018-03-31T04:13:54.521Z,4.90
2018-03-31T04:14:54.548Z,4.60
2018-03-31T04:15:54.624Z,4.70
2018-03-31T04:16:54.573Z,4.70
2018-03-31T04:17:54.594Z,5.00
2018-03-31T04:18:54.612Z,4.90
2018-03-31T04:19:54.636Z,5.10
2018-03-31T04:20:54.701Z,5.10
2018-03-31T04:21:54.706Z,5.00
2018-03-31T04:22:54.683Z,4.90
2018-03-31T04:23:54.691Z,5.10
2018-03-31T04:24:54.704Z,5.00
2018-03-31T04:25:54.786Z,5.20
2018-03-31T04:26:54.751Z,5.40
2018-03-31T04:27:54.767Z,5.30
2018-03-31T04:28:54.796Z,5.40
2018-03-31T04:29:54.787Z,5.90
2018-03-31T04:30:54.806Z,5.30
2018-03-31T04:31:54.827Z,5.30
2018-03-31T04:32:54.846Z,5.40
2018-03-31T04:33:54.913Z,5.70
2018-03-31T04:34:54.870Z,5.60
2018-03-31T04:35:54.888Z,5.60
2018-03-31T04:36:54.903Z,5.80
2018-03-31T04:37:54.928Z,5.40
2018-03-31T04:38:54.944Z,5.60
2018-03-31T04:39:55.012Z,5.70
2018-03-31T04:40:54.975Z,5.90
2018-03-31T04:41:54.986Z,5.90
2018-03-31T04:42:55.003Z,5.30
2018-03-31T04:43:55.025Z,5.40
2018-03-31T04:44:55.036Z,5.20
2018-03-31T04:45:55.110Z,5.70
2018-03-31T04:46:55.066Z,5.80
2018-03-31T04:47:55.086Z,5.60
2018-03-31T04:48:55.113Z,5.60
2018-03-31T04:49:55.128Z,5.40
2018-03-31T04:50:55.174Z,5.60
2018-03-31T04:51:55.215Z,6.00
2018-03-31T04:52:55.178Z,5.30
2018-03-31T04:53:55.188Z,5.30
2018-03-31T04:54:55.199Z,5.30
2018-03-31T04:55:55.227Z,5.40
2018-03-31T04:56:55.246Z,5.40
2018-03-31T04:57:55.251Z,5.70
2018-03-31T04:58:55.278Z,5.00
2018-03-31T04:59:55.284Z,5.70
2018-03-31T05:00:55.309Z,5.60
2018-03-31T05:01:55.317Z,5.50
2018-03-31T05:02:55.406Z,5.80
2018-03-31T05:03:55.353Z,5.10
2018-03-31T05:04:55.367Z,5.50
2018-03-31T05:05:55.383Z,5.40
2018-03-31T05:06:55.402Z,5.30
2018-03-31T05:07:55.416Z,5.20
2018-03-31T05:08:55.481Z,5.20
2018-03-31T05:09:55.459Z,5.20
2018-03-31T05:10:55.465Z,5.30
2018-03-31T05:11:55.531Z,5.40
2018-03-31T05:12:55.498Z,5.30
2018-03-31T05:13:55.515Z,5.00
2018-03-31T05:14:55.583Z,5.50
2018-03-31T05:15:55.549Z,5.40
2018-03-31T05:16:55.565Z,5.30
2018-03-31T05:17:55.635Z,5.20
2018-03-31T05:18:55.595Z,5.60
2018-03-31T05:19:55.622Z,4.80
2018-03-31T05:20:55.683Z,5.40
2018-03-31T05:21:55.647Z,4.90
2018-03-31T05:22:55.663Z,4.90
2018-03-31T05:23:55.682Z,5.30
2018-03-31T05:24:55.696Z,5.40
2018-03-31T05:25:55.719Z,4.80
2018-03-31T05:26:55.795Z,4.80
2018-03-31T05:27:55.744Z,4.80
2018-03-31T05:28:55.762Z,5.10
2018-03-31T05:29:55.779Z,4.70
2018-03-31T05:30:55.800Z,4.70
2018-03-31T05:31:55.822Z,4.60
2018-03-31T05:32:55.888Z,4.50
2018-03-31T05:33:55.851Z,4.80
2018-03-31T05:34:55.857Z,4.70
2018-03-31T05:35:55.880Z,5.00
2018-03-31T05:36:55.892Z,4.80
2018-03-31T05:37:55.919Z,4.10
2018-03-31T05:38:55.981Z,4.80
2018-03-31T05:39:55.944Z,4.80
2018-03-31T05:40:55.971Z,4.60
2018-03-31T05:41:55.977Z,4.50
2018-03-31T05:42:55.993Z,4.80
2018-03-31T05:43:56.021Z,4.80
2018-03-31T05:44:56.033Z,4.80
2018-03-31T05:45:56.043Z,4.50
2018-03-31T05:46:56.059Z,4.70
2018-03-31T05:47:56.078Z,4.20
2018-03-31T05:48:56.094Z,4.60
2018-03-31T05:49:56.112Z,4.90
2018-03-31T05:50:56.181Z,4.70
2018-03-31T05:51:56.150Z,4.20
2018-03-31T05:52:56.172Z,4.70
2018-03-31T05:53:56.176Z,4.40
2018-03-31T05:54:56.192Z,4.30
2018-03-31T05:55:56.215Z,4.10
2018-03-31T05:56:56.229Z,4.80
2018-03-31T05:57:56.263Z,4.50
2018-03-31T05:58:56.267Z,4.50
2018-03-31T05:59:56.292Z,4.50
2018-03-31T06:00:56.291Z,4.70
2018-03-31T06:01:56.313Z,3.90
2018-03-31T06:02:56.389Z,4.60
2018-03-31T06:03:56.345Z,4.50
2018-03-31T06:04:56.361Z,4.40
2018-03-31T06:05:56.384Z,4.20
2018-03-31T06:06:56.393Z,4.30
2018-03-31T06:07:56.409Z,4.50
2018-03-31T06:08:56.476Z,4.70
2018-03-31T06:09:56.457Z,5.10
2018-03-31T06:10:56.463Z,4.70
2018-03-31T06:11:56.478Z,4.70
2018-03-31T06:12:56.494Z,4.30
2018-03-31T06:13:56.510Z,4.40
2018-03-31T06:14:56.587Z,5.00
2018-03-31T06:15:56.543Z,4.70
2018-03-31T06:16:56.580Z,5.10
2018-03-31T06:17:56.575Z,4.90
2018-03-31T06:18:56.603Z,4.80
2018-03-31T06:19:56.609Z,4.50
2018-03-31T06:20:56.684Z,5.50
2018-03-31T06:21:56.655Z,5.00
2018-03-31T06:22:56.705Z,4.80
2018-03-31T06:23:56.678Z,4.70
2018-03-31T06:24:56.698Z,5.00
2018-03-31T06:25:56.711Z,4.70
2018-03-31T06:26:56.728Z,5.50
2018-03-31T06:27:56.745Z,5.00
2018-03-31T06:28:56.838Z,5.10
2018-03-31T06:29:56.794Z,5.40
2018-03-31T06:30:56.795Z,4.80
2018-03-31T06:31:56.824Z,5.00
2018-03-31T06:32:56.883Z,4.90
2018-03-31T06:33:56.844Z,5.20
2018-03-31T06:34:56.938Z,5.00
2018-03-31T06:35:56.879Z,5.20
2018-03-31T06:36:56.898Z,4.70
2018-03-31T06:37:56.925Z,5.00
2018-03-31T06:38:56.981Z,5.40
2018-03-31T06:39:56.946Z,5.20
2018-03-31T06:40:56.988Z,5.10
2018-03-31T06:41:56.985Z,4.70
2018-03-31T06:42:56.997Z,5.20
2018-03-31T06:43:57.015Z,4.80
2018-03-31T06:44:57.093Z,5.20
2018-03-31T06:45:57.054Z,5.10
2018-03-31T06:46:57.141Z,5.10
2018-03-31T06:47:57.081Z,5.40
2018-03-31T06:48:57.097Z,4.80
2018-03-31T06:49:57.116Z,5.10
2018-03-31T06:50:57.183Z,5.30
2018-03-31T06:51:57.152Z,5.20
2018-03-31T06:52:57.196Z,5.00
2018-03-31T06:53:57.182Z,5.10
2018-03-31T06:54:57.200Z,4.90
2018-03-31T06:55:57.219Z,5.20
2018-03-31T06:56:57.283Z,5.20
2018-03-31T06:57:57.261Z,5.20
2018-03-31T06:58:57.268Z,5.60
2018-03-31T06:59:57.286Z,4.90
2018-03-31T07:00:57.302Z,5.10
2018-03-31T07:01:57.320Z,5.20
2018-03-31T07:02:57.397Z,5.10
2018-03-31T07:03:57.352Z,4.40
2018-03-31T07:04:57.373Z,4.70
2018-03-31T07:05:57.386Z,5.00
2018-03-31T07:06:57.426Z,5.00
2018-03-31T07:07:57.433Z,4.60
2018-03-31T07:08:57.448Z,5.00
2018-03-31T07:09:57.461Z,5.20
2018-03-31T07:10:57.481Z,5.00
2018-03-31T07:11:57.491Z,4.90
2018-03-31T07:12:57.515Z,5.30
2018-03-31T07:13:57.532Z,5.20
2018-03-31T07:14:57.543Z,5.00
2018-03-31T07:15:57.563Z,4.60
2018-03-31T07:16:57.578Z,4.90
2018-03-31T07:17:57.669Z,5.00
2018-03-31T07:18:57.612Z,5.30
2018-03-31T07:19:57.630Z,5.80
2018-03-31T07:20:57.647Z,5.20
2018-03-31T07:21:57.675Z,5.60
2018-03-31T07:22:57.690Z,5.30
2018-03-31T07:23:57.699Z,5.10
2018-03-31T07:24:57.713Z,5.00
2018-03-31T07:25:57.732Z,5.10
2018-03-31T07:26:57.754Z,5.20
2018-03-31T07:27:57.769Z,5.30
2018-03-31T07:28:57.789Z,4.80
2018-03-31T07:29:57.806Z,5.50
2018-03-31T07:30:57.831Z,5.10
2018-03-31T07:31:57.840Z,5.40
2018-03-31T07:32:57.908Z,5.30
2018-03-31T07:33:57.874Z,5.10
2018-03-31T07:34:57.894Z,5.10
2018-03-31T07:35:57.912Z,4.50
2018-03-31T07:36:57.928Z,5.30
2018-03-31T07:37:57.958Z,5.30
2018-03-31T07:38:58.020Z,4.80
2018-03-31T07:39:57.995Z,5.40
2018-03-31T07:40:58.002Z,5.10
2018-03-31T07:41:58.060Z,5.00
2018-03-31T07:42:58.041Z,4.80
2018-03-31T07:43:58.060Z,4.80
2018-03-31T07:44:58.081Z,4.50
2018-03-31T07:45:58.096Z,5.00
2018-03-31T07:46:58.115Z,4.90
2018-03-31T07:47:58.134Z,4.90
2018-03-31T07:48:58.158Z,5.40
2018-03-31T07:49:58.175Z,5.20
2018-03-31T07:50:58.243Z,5.10
2018-03-31T07:51:58.273Z,4.90
2018-03-31T07:52:58.231Z,5.40
2018-03-31T07:53:58.305Z,4.90
2018-03-31T07:54:58.269Z,5.10
2018-03-31T07:55:58.295Z,5.10
2018-03-31T07:56:58.309Z,5.30
2018-03-31T07:57:58.334Z,4.90
2018-03-31T07:58:58.348Z,5.10
2018-03-31T07:59:58.449Z,5.20
2018-03-31T08:00:58.398Z,5.10
2018-03-31T08:01:58.413Z,5.20
2018-03-31T08:02:58.478Z,5.40
2018-03-31T08:03:58.446Z,5.00
2018-03-31T08:04:58.466Z,5.00
2018-03-31T08:05:58.543Z,4.80
2018-03-31T08:06:58.512Z,5.30
2018-03-31T08:07:58.526Z,5.00
2018-03-31T08:08:58.597Z,4.80
2018-03-31T08:09:58.636Z,5.20
2018-03-31T08:10:58.585Z,4.90
2018-03-31T08:11:58.648Z,4.80
2018-03-31T08:12:58.626Z,5.20
2018-03-31T08:13:58.655Z,4.90
2018-03-31T08:14:58.676Z,4.90
2018-03-31T08:15:58.685Z,5.10
2018-03-31T08:16:58.719Z,5.30
2018-03-31T08:17:58.790Z,5.00
2018-03-31T08:18:58.747Z,5.40
2018-03-31T08:19:58.769Z,4.70
2018-03-31T08:20:58.841Z,4.70
2018-03-31T08:21:58.806Z,4.20
2018-03-31T08:22:58.828Z,4.70
2018-03-31T08:23:58.889Z,4.00
2018-03-31T08:24:58.869Z,4.80
2018-03-31T08:25:58.918Z,4.90
2018-03-31T08:26:58.926Z,4.30
2018-03-31T08:27:58.936Z,4.40
2018-03-31T08:28:58.954Z,4.10
2018-03-31T08:29:58.967Z,4.50
2018-03-31T08:30:58.999Z,4.20
2018-03-31T08:31:59.008Z,4.50
2018-03-31T08:32:59.101Z,4.30
2018-03-31T08:33:59.050Z,4.20
2018-03-31T08:34:59.070Z,4.40
2018-03-31T08:35:59.100Z,4.30
2018-03-31T08:36:59.118Z,4.40
2018-03-31T08:37:59.128Z,4.10
2018-03-31T08:38:59.205Z,4.60
2018-03-31T08:39:59.171Z,4.70
2018-03-31T08:40:59.203Z,4.30
2018-03-31T08:41:59.213Z,4.20
2018-03-31T08:42:59.297Z,4.20
2018-03-31T08:43:59.266Z,4.20
2018-03-31T08:44:59.324Z,4.40
2018-03-31T08:45:59.303Z,4.30
2018-03-31T08:46:59.369Z,4.40
2018-03-31T08:47:59.336Z,4.30
2018-03-31T08:48:59.363Z,4.30
2018-03-31T08:49:59.377Z,4.10
2018-03-31T08:50:59.465Z,4.60
2018-03-31T08:51:59.431Z,4.10
2018-03-31T08:52:59.451Z,3.80
2018-03-31T08:53:59.508Z,4.20
2018-03-31T08:54:59.487Z,3.80
2018-03-31T08:55:59.510Z,4.30
2018-03-31T08:56:59.578Z,4.40
2018-03-31T08:57:59.558Z,4.00
2018-03-31T08:58:59.572Z,3.80
2018-03-31T08:59:59.595Z,4.20
2018-03-31T09:00:59.623Z,4.20
2018-03-31T09:01:59.643Z,4.10
2018-03-31T09:02:59.706Z,3.80
2018-03-31T09:03:59.688Z,4.10
2018-03-31T09:04:59.700Z,4.00
2018-03-31T09:05:59.719Z,3.80
2018-03-31T09:06:59.770Z,3.80
2018-03-31T09:07:59.773Z,3.60
2018-03-31T09:08:59.788Z,4.00
2018-03-31T09:09:59.805Z,3.80
2018-03-31T09:10:59.824Z,3.70
2018-03-31T09:11:59.857Z,3.90
2018-03-31T09:12:59.899Z,4.10
2018-03-31T09:13:59.887Z,4.20
2018-03-31T09:14:59.961Z,4.30
2018-03-31T09:15:59.939Z,4.40
2018-03-31T09:16:59.953Z,3.80
2018-03-31T09:17:59.971Z,4.50
2018-03-31T09:19:00.039Z,4.40
2018-03-31T09:20:00.034Z,4.20
2018-03-31T09:21:00.099Z,4.30
2018-03-31T09:22:00.127Z,4.10
2018-03-31T09:23:00.133Z,4.50
2018-03-31T09:24:00.104Z,4.30
2018-03-31T09:25:00.121Z,4.20
2018-03-31T09:26:00.140Z,3.90
2018-03-31T09:27:00.231Z,3.90
2018-03-31T09:28:00.186Z,4.10
2018-03-31T09:29:00.202Z,3.80
2018-03-31T09:30:00.233Z,3.50
2018-03-31T09:31:00.247Z,3.80
2018-03-31T09:32:00.275Z,3.90
2018-03-31T09:33:00.406Z,4.20
2018-03-31T09:34:00.317Z,3.90
2018-03-31T09:35:00.341Z,3.90
2018-03-31T09:36:00.354Z,3.70
2018-03-31T09:37:00.373Z,3.90
2018-03-31T09:38:00.414Z,3.80
2018-03-31T09:39:00.479Z,3.90
2018-03-31T09:40:00.485Z,3.90
2018-03-31T09:41:00.462Z,4.00
2018-03-31T09:42:00.486Z,4.20
2018-03-31T09:43:00.504Z,4.00
2018-03-31T09:44:00.557Z,3.70
2018-03-31T09:45:00.547Z,3.70
2018-03-31T09:46:00.567Z,3.70
2018-03-31T09:47:00.602Z,3.70
2018-03-31T09:48:00.612Z,3.60
2018-03-31T09:49:00.636Z,3.80
2018-03-31T09:50:00.657Z,3.50
2018-03-31T09:51:00.680Z,3.00
2018-03-31T09:52:00.706Z,3.60
2018-03-31T09:53:00.721Z,3.50
2018-03-31T09:54:00.751Z,3.70
2018-03-31T09:55:00.766Z,3.70
2018-03-31T09:56:00.787Z,3.60
2018-03-31T09:57:00.809Z,3.30
2018-03-31T09:58:00.837Z,3.20
2018-03-31T09:59:00.852Z,3.50
2018-03-31T10:00:00.879Z,3.80
2018-03-31T10:01:00.895Z,3.40
2018-03-31T10:02:00.915Z,3.70
2018-03-31T10:03:01.031Z,3.40
2018-03-31T10:04:00.972Z,3.40
2018-03-31T10:05:00.984Z,3.40
2018-03-31T10:06:01.021Z,3.70
2018-03-31T10:07:01.031Z,3.80
2018-03-31T10:08:01.051Z,3.40
2018-03-31T10:09:01.208Z,3.60
2018-03-31T10:10:01.111Z,3.60
2018-03-31T10:11:01.120Z,3.60
2018-03-31T10:12:01.156Z,3.50
2018-03-31T10:13:01.164Z,3.90
2018-03-31T10:14:01.191Z,3.80
2018-03-31T10:15:01.268Z,3.80
2018-03-31T10:16:01.252Z,3.40
2018-03-31T10:17:01.258Z,3.40
2018-03-31T10:18:01.290Z,3.60
2018-03-31T10:19:01.305Z,3.10
2018-03-31T10:20:01.338Z,3.10
2018-03-31T10:21:01.402Z,3.30
2018-03-31T10:22:01.371Z,3.10
2018-03-31T10:23:01.395Z,3.50
2018-03-31T10:24:01.420Z,3.10
2018-03-31T10:25:01.451Z,3.20
2018-03-31T10:26:01.464Z,3.50
2018-03-31T10:27:01.499Z,3.30
2018-03-31T10:28:01.511Z,3.60
2018-03-31T10:29:01.543Z,3.20
2018-03-31T10:30:01.566Z,3.20
2018-03-31T10:31:01.581Z,3.60
2018-03-31T10:32:01.632Z,3.00
2018-03-31T10:33:01.631Z,3.60
2018-03-31T10:34:01.682Z,3.20
2018-03-31T10:35:01.683Z,3.40
2018-03-31T10:36:01.702Z,3.10
2018-03-31T10:37:01.722Z,3.40
2018-03-31T10:38:01.755Z,3.30
2018-03-31T10:39:01.769Z,3.10
2018-03-31T10:40:01.812Z,3.10
2018-03-31T10:41:01.815Z,3.20
2018-03-31T10:42:01.840Z,3.30
2018-03-31T10:43:01.862Z,3.10
2018-03-31T10:44:01.887Z,3.30
2018-03-31T10:45:01.961Z,3.50
2018-03-31T10:46:01.935Z,3.10
2018-03-31T10:47:01.974Z,3.10
2018-03-31T10:48:01.986Z,3.40
2018-03-31T10:49:02.003Z,3.00
2018-03-31T10:50:02.038Z,3.20
2018-03-31T10:51:02.050Z,3.10
2018-03-31T10:52:02.076Z,3.00
2018-03-31T10:53:02.101Z,2.90
2018-03-31T10:54:02.120Z,3.10
2018-03-31T10:55:02.143Z,3.10
2018-03-31T10:56:02.168Z,3.70
2018-03-31T10:57:02.262Z,3.40
2018-03-31T10:58:02.218Z,3.50
2018-03-31T10:59:02.249Z,3.40
2018-03-31T11:00:02.271Z,3.30
2018-03-31T11:01:02.296Z,3.60
2018-03-31T11:02:02.313Z,3.30
2018-03-31T11:03:02.342Z,3.70
2018-03-31T11:04:02.357Z,3.60
2018-03-31T11:05:02.404Z,3.50
2018-03-31T11:06:02.405Z,3.50
2018-03-31T11:07:02.428Z,3.30
2018-03-31T11:08:02.454Z,3.10
2018-03-31T11:09:02.486Z,3.10
2018-03-31T11:10:02.498Z,3.40
2018-03-31T11:11:02.524Z,3.10
2018-03-31T11:12:02.545Z,3.50
2018-03-31T11:13:02.574Z,3.20
2018-03-31T11:14:02.610Z,3.50
2018-03-31T11:15:02.617Z,3.10
2018-03-31T11:16:02.657Z,2.60
2018-03-31T11:17:02.665Z,2.50
2018-03-31T11:18:02.685Z,3.10
2018-03-31T11:19:02.710Z,2.60
2018-03-31T11:20:02.736Z,3.00
2018-03-31T11:21:02.757Z,2.70
2018-03-31T11:22:02.785Z,2.90
2018-03-31T11:23:02.818Z,3.10
2018-03-31T11:24:02.854Z,3.20
2018-03-31T11:25:02.849Z,3.20
2018-03-31T11:26:02.871Z,2.70
2018-03-31T11:27:02.949Z,2.50
2018-03-31T11:28:02.924Z,2.70
2018-03-31T11:29:02.948Z,3.10
2018-03-31T11:30:02.997Z,3.40
2018-03-31T11:31:02.986Z,3.70
2018-03-31T11:32:03.015Z,3.70
2018-03-31T11:33:03.032Z,3.50
2018-03-31T11:34:03.060Z,3.80
2018-03-31T11:35:03.085Z,4.50
2018-03-31T11:36:03.143Z,3.90
2018-03-31T11:37:03.122Z,4.30
2018-03-31T11:38:03.145Z,4.20
2018-03-31T11:39:03.230Z,3.70
2018-03-31T11:40:03.187Z,3.60
2018-03-31T11:41:03.212Z,4.00
2018-03-31T11:42:03.236Z,4.00
2018-03-31T11:43:03.259Z,4.10
2018-03-31T11:44:03.284Z,3.70
2018-03-31T11:45:03.360Z,4.50
2018-03-31T11:46:03.329Z,3.70
2018-03-31T11:47:03.361Z,3.70
2018-03-31T11:48:03.378Z,3.90
2018-03-31T11:49:03.409Z,4.00
2018-03-31T11:50:03.429Z,4.00
2018-03-31T11:51:03.499Z,4.10
2018-03-31T11:52:03.481Z,4.10
2018-03-31T11:53:03.506Z,3.60
2018-03-31T11:54:03.527Z,3.70
2018-03-31T11:55:03.598Z,4.00
2018-03-31T11:56:03.575Z,3.90
2018-03-31T11:57:03.653Z,3.80
2018-03-31T11:58:03.612Z,3.90
2018-03-31T11:59:03.643Z,4.00
2018-03-31T12:00:03.658Z,4.10
2018-03-31T12:01:03.682Z,4.20
2018-03-31T12:02:03.704Z,4.30
2018-03-31T12:03:03.776Z,4.00
2018-03-31T12:04:03.769Z,4.00
2018-03-31T12:05:03.772Z,4.10
2018-03-31T12:06:03.793Z,4.00
2018-03-31T12:07:03.847Z,4.00
2018-03-31T12:08:03.837Z,4.10
2018-03-31T12:09:03.864Z,4.20
2018-03-31T12:10:03.891Z,4.30
2018-03-31T12:11:03.905Z,4.10
2018-03-31T12:12:03.926Z,3.50
2018-03-31T12:13:03.956Z,3.90
2018-03-31T12:14:03.968Z,4.20
2018-03-31T12:15:03.994Z,4.00
2018-03-31T12:16:04.012Z,3.70
2018-03-31T12:17:04.033Z,3.60
2018-03-31T12:18:04.054Z,3.20
2018-03-31T12:19:04.077Z,3.70
2018-03-31T12:20:04.158Z,3.30
2018-03-31T12:21:04.147Z,3.80
2018-03-31T12:22:04.149Z,3.60
2018-03-31T12:23:04.162Z,3.70
2018-03-31T12:24:04.183Z,3.80
2018-03-31T12:25:04.209Z,3.70
2018-03-31T12:26:04.248Z,3.90
2018-03-31T12:27:04.253Z,4.00
2018-03-31T12:28:04.270Z,3.90
2018-03-31T12:29:04.302Z,3.60
2018-03-31T12:30:04.316Z,4.10
2018-03-31T12:31:04.345Z,3.80
2018-03-31T12:32:04.381Z,4.00
2018-03-31T12:33:04.429Z,3.90
2018-03-31T12:34:04.402Z,4.00
2018-03-31T12:35:04.433Z,3.70
2018-03-31T12:36:04.446Z,4.10
2018-03-31T12:37:04.468Z,3.90
2018-03-31T12:38:04.502Z,3.60
2018-03-31T12:39:04.523Z,3.70
2018-03-31T12:40:04.534Z,3.70
2018-03-31T12:41:04.564Z,4.20
2018-03-31T12:42:04.583Z,3.80
2018-03-31T12:43:04.598Z,3.60
2018-03-31T12:44:04.621Z,3.60
2018-03-31T12:45:04.646Z,3.60
2018-03-31T12:46:04.663Z,3.70
2018-03-31T12:47:04.684Z,4.00
2018-03-31T12:48:04.703Z,3.90
2018-03-31T12:49:04.730Z,3.80
2018-03-31T12:50:04.793Z,3.30
2018-03-31T12:51:04.887Z,3.30
2018-03-31T12:52:04.801Z,3.80
2018-03-31T12:53:04.815Z,3.40
2018-03-31T12:54:04.841Z,3.80
2018-03-31T12:55:04.852Z,4.00
2018-03-31T12:56:04.877Z,3.70
2018-03-31T12:57:04.988Z,3.80
2018-03-31T12:58:04.917Z,4.10
2018-03-31T12:59:04.938Z,3.60
2018-03-31T13:00:04.960Z,4.00
2018-03-31T13:01:04.983Z,3.70
2018-03-31T13:02:05.012Z,3.80
2018-03-31T13:03:05.118Z,3.90
2018-03-31T13:04:05.046Z,3.70
2018-03-31T13:05:05.074Z,3.40
2018-03-31T13:06:05.088Z,3.40
2018-03-31T13:07:05.109Z,3.90
2018-03-31T13:08:05.130Z,3.20
2018-03-31T13:09:05.242Z,3.30
2018-03-31T13:10:05.181Z,3.40
2018-03-31T13:11:05.190Z,3.60
2018-03-31T13:12:05.212Z,3.50
2018-03-31T13:13:05.234Z,4.00
2018-03-31T13:14:05.263Z,3.30
2018-03-31T13:15:05.327Z,3.40
2018-03-31T13:16:05.298Z,3.90
2018-03-31T13:17:05.326Z,3.30
2018-03-31T13:18:05.337Z,3.40
2018-03-31T13:19:05.367Z,3.30